sensor_id;sensor_type;location;lat;lon;timestamp;temperature;humidity
17591;DHT22;8914;50.070;8.226;2024-01-27T00:01:59;7.80;99.90
17591;DHT22;8914;50.070;8.226;2024-01-27T00:04:32;7.90;99.90
17591;DHT22;8914;50.070;8.226;2024-01-27T00:07:01;7.90;99.90
17591;DHT22;8914;50.070;8.226;2024-01-27T00:09:31;7.90;99.90
17591;DHT22;8914;50.070;8.226;2024-01-27T00:12:01;7.90;99.90
17591;DHT22;8914;50.070;8.226;2024-01-27T00:14:30;7.90;99.90
17591;DHT22;8914;50.070;8.226;2024-01-27T00:17:00;7.90;99.90
17591;DHT22;8914;50.070;8.226;2024-01-27T00:19:33;7.90;99.90
17591;DHT22;8914;50.070;8.226;2024-01-27T00:22:06;7.90;99.90
17591;DHT22;8914;50.070;8.226;2024-01-27T00:24:36;7.80;99.90
17591;DHT22;8914;50.070;8.226;2024-01-27T00:27:05;7.80;99.90
17591;DHT22;8914;50.070;8.226;2024-01-27T00:29:35;7.80;99.90
17591;DHT22;8914;50.070;8.226;2024-01-27T00:32:05;7.70;99.90
17591;DHT22;8914;50.070;8.226;2024-01-27T00:34:37;7.70;99.90
17591;DHT22;8914;50.070;8.226;2024-01-27T00:37:07;8.80;99.90
17591;DHT22;8914;50.070;8.226;2024-01-27T00:39:36;7.60;99.90
17591;DHT22;8914;50.070;8.226;2024-01-27T00:42:06;7.60;99.90
17591;DHT22;8914;50.070;8.226;2024-01-27T00:44:36;7.60;99.90
17591;DHT22;8914;50.070;8.226;2024-01-27T00:47:05;7.60;99.90
17591;DHT22;8914;50.070;8.226;2024-01-27T00:49:37;7.50;99.90
17591;DHT22;8914;50.070;8.226;2024-01-27T00:52:07;7.50;99.90
17591;DHT22;8914;50.070;8.226;2024-01-27T00:54:37;7.50;99.90
17591;DHT22;8914;50.070;8.226;2024-01-27T00:57:06;7.50;99.90
17591;DHT22;8914;50.070;8.226;2024-01-27T00:59:36;7.40;99.90
17591;DHT22;8914;50.070;8.226;2024-01-27T01:02:06;7.30;99.90
17591;DHT22;8914;50.070;8.226;2024-01-27T01:04:38;7.30;99.90
17591;DHT22;8914;50.070;8.226;2024-01-27T01:07:09;7.30;99.90
17591;DHT22;8914;50.070;8.226;2024-01-27T01:09:38;7.20;99.90
17591;DHT22;8914;50.070;8.226;2024-01-27T01:12:08;7.20;99.90
17591;DHT22;8914;50.070;8.226;2024-01-27T01:14:38;7.10;99.90
17591;DHT22;8914;50.070;8.226;2024-01-27T01:17:07;7.10;99.90
17591;DHT22;8914;50.070;8.226;2024-01-27T01:19:40;7.10;99.90
17591;DHT22;8914;50.070;8.226;2024-01-27T01:22:09;7.10;99.90
17591;DHT22;8914;50.070;8.226;2024-01-27T01:24:39;6.90;99.90
17591;DHT22;8914;50.070;8.226;2024-01-27T01:27:09;6.90;99.90
17591;DHT22;8914;50.070;8.226;2024-01-27T01:29:38;6.90;99.90
17591;DHT22;8914;50.070;8.226;2024-01-27T01:32:08;6.90;99.90
17591;DHT22;8914;50.070;8.226;2024-01-27T01:34:40;6.80;99.90
17591;DHT22;8914;50.070;8.226;2024-01-27T01:37:10;7.30;99.90
17591;DHT22;8914;50.070;8.226;2024-01-27T01:39:40;6.90;99.90
17591;DHT22;8914;50.070;8.226;2024-01-27T01:42:09;6.90;99.90
17591;DHT22;8914;50.070;8.226;2024-01-27T01:44:39;6.80;99.90
17591;DHT22;8914;50.070;8.226;2024-01-27T01:47:09;6.80;99.90
17591;DHT22;8914;50.070;8.226;2024-01-27T01:49:41;6.80;99.90
17591;DHT22;8914;50.070;8.226;2024-01-27T01:52:11;6.80;99.90
17591;DHT22;8914;50.070;8.226;2024-01-27T01:54:46;6.80;99.90
17591;DHT22;8914;50.070;8.226;2024-01-27T01:57:17;6.80;99.90
17591;DHT22;8914;50.070;8.226;2024-01-27T01:59:50;6.80;99.90
17591;DHT22;8914;50.070;8.226;2024-01-27T02:02:19;6.80;99.90
17591;DHT22;8914;50.070;8.226;2024-01-27T02:04:52;6.80;99.90
17591;DHT22;8914;50.070;8.226;2024-01-27T02:07:21;6.70;99.90
17591;DHT22;8914;50.070;8.226;2024-01-27T02:09:51;6.60;99.90
17591;DHT22;8914;50.070;8.226;2024-01-27T02:12:21;6.70;99.90
17591;DHT22;8914;50.070;8.226;2024-01-27T02:14:51;6.60;99.90
17591;DHT22;8914;50.070;8.226;2024-01-27T02:17:20;6.60;99.90
17591;DHT22;8914;50.070;8.226;2024-01-27T02:19:52;6.60;99.90
17591;DHT22;8914;50.070;8.226;2024-01-27T02:22:22;6.60;99.90
17591;DHT22;8914;50.070;8.226;2024-01-27T02:24:54;6.60;99.90
17591;DHT22;8914;50.070;8.226;2024-01-27T02:27:24;6.60;99.90
17591;DHT22;8914;50.070;8.226;2024-01-27T02:29:53;6.50;99.90
17591;DHT22;8914;50.070;8.226;2024-01-27T02:32:23;6.50;99.90
17591;DHT22;8914;50.070;8.226;2024-01-27T02:34:53;6.50;99.90
17591;DHT22;8914;50.070;8.226;2024-01-27T02:37:23;6.50;99.90
17591;DHT22;8914;50.070;8.226;2024-01-27T02:39:55;6.50;99.90
17591;DHT22;8914;50.070;8.226;2024-01-27T02:42:26;6.50;99.90
17591;DHT22;8914;50.070;8.226;2024-01-27T02:44:56;6.50;99.90
17591;DHT22;8914;50.070;8.226;2024-01-27T02:47:26;6.40;99.90
17591;DHT22;8914;50.070;8.226;2024-01-27T02:49:55;6.40;99.90
17591;DHT22;8914;50.070;8.226;2024-01-27T02:52:25;6.40;99.90
17591;DHT22;8914;50.070;8.226;2024-01-27T02:54:57;6.30;99.90
17591;DHT22;8914;50.070;8.226;2024-01-27T02:57:27;6.20;99.90
17591;DHT22;8914;50.070;8.226;2024-01-27T02:59:56;6.10;99.90
17591;DHT22;8914;50.070;8.226;2024-01-27T03:02:26;6.10;99.90
17591;DHT22;8914;50.070;8.226;2024-01-27T03:04:56;6.00;99.90
17591;DHT22;8914;50.070;8.226;2024-01-27T03:07:26;5.90;99.90
17591;DHT22;8914;50.070;8.226;2024-01-27T03:09:58;5.80;99.90
17591;DHT22;8914;50.070;8.226;2024-01-27T03:12:27;5.80;99.90
17591;DHT22;8914;50.070;8.226;2024-01-27T03:14:57;5.70;99.90
17591;DHT22;8914;50.070;8.226;2024-01-27T03:17:27;5.70;99.90
17591;DHT22;8914;50.070;8.226;2024-01-27T03:19:57;5.70;99.90
17591;DHT22;8914;50.070;8.226;2024-01-27T03:22:26;5.70;99.90
17591;DHT22;8914;50.070;8.226;2024-01-27T03:24:59;5.70;99.90
17591;DHT22;8914;50.070;8.226;2024-01-27T03:27:28;5.60;99.90
17591;DHT22;8914;50.070;8.226;2024-01-27T03:29:59;5.60;99.90
17591;DHT22;8914;50.070;8.226;2024-01-27T03:32:30;5.50;99.90
17591;DHT22;8914;50.070;8.226;2024-01-27T03:35:01;5.50;99.90
17591;DHT22;8914;50.070;8.226;2024-01-27T03:37:31;5.40;99.90
17591;DHT22;8914;50.070;8.226;2024-01-27T03:40:03;5.40;99.90
17591;DHT22;8914;50.070;8.226;2024-01-27T03:42:33;5.30;99.90
17591;DHT22;8914;50.070;8.226;2024-01-27T03:45:03;5.30;99.90
17591;DHT22;8914;50.070;8.226;2024-01-27T03:47:33;5.20;99.90
17591;DHT22;8914;50.070;8.226;2024-01-27T03:50:03;5.20;99.90
17591;DHT22;8914;50.070;8.226;2024-01-27T03:52:33;5.20;99.90
17591;DHT22;8914;50.070;8.226;2024-01-27T03:55:05;5.10;99.90
17591;DHT22;8914;50.070;8.226;2024-01-27T03:57:35;5.00;99.90
17591;DHT22;8914;50.070;8.226;2024-01-27T04:00:05;5.00;99.90
17591;DHT22;8914;50.070;8.226;2024-01-27T04:02:35;4.90;99.90
17591;DHT22;8914;50.070;8.226;2024-01-27T04:05:05;4.90;99.90
17591;DHT22;8914;50.070;8.226;2024-01-27T04:07:35;4.90;99.90
17591;DHT22;8914;50.070;8.226;2024-01-27T04:10:08;4.90;99.90
17591;DHT22;8914;50.070;8.226;2024-01-27T04:12:38;4.80;99.90
17591;DHT22;8914;50.070;8.226;2024-01-27T04:15:08;4.80;99.90
17591;DHT22;8914;50.070;8.226;2024-01-27T04:17:37;4.80;99.90
17591;DHT22;8914;50.070;8.226;2024-01-27T04:20:08;4.70;99.90
17591;DHT22;8914;50.070;8.226;2024-01-27T04:22:38;4.70;99.90
17591;DHT22;8914;50.070;8.226;2024-01-27T04:25:10;4.70;99.90
17591;DHT22;8914;50.070;8.226;2024-01-27T04:27:40;6.00;99.90
17591;DHT22;8914;50.070;8.226;2024-01-27T04:30:10;4.60;99.90
17591;DHT22;8914;50.070;8.226;2024-01-27T04:32:40;4.50;99.90
17591;DHT22;8914;50.070;8.226;2024-01-27T04:35:10;4.50;99.90
17591;DHT22;8914;50.070;8.226;2024-01-27T04:37:40;4.50;99.90
17591;DHT22;8914;50.070;8.226;2024-01-27T04:40:13;4.50;99.90
17591;DHT22;8914;50.070;8.226;2024-01-27T04:42:43;4.50;99.90
17591;DHT22;8914;50.070;8.226;2024-01-27T04:45:14;4.50;99.90
17591;DHT22;8914;50.070;8.226;2024-01-27T04:47:44;4.40;99.90
17591;DHT22;8914;50.070;8.226;2024-01-27T04:50:14;4.30;99.90
17591;DHT22;8914;50.070;8.226;2024-01-27T04:52:44;4.30;99.90
17591;DHT22;8914;50.070;8.226;2024-01-27T04:55:16;4.30;99.90
17591;DHT22;8914;50.070;8.226;2024-01-27T04:57:46;4.50;99.90
17591;DHT22;8914;50.070;8.226;2024-01-27T05:00:15;4.30;99.90
17591;DHT22;8914;50.070;8.226;2024-01-27T05:02:45;4.30;99.90
17591;DHT22;8914;50.070;8.226;2024-01-27T05:05:15;4.30;99.90
17591;DHT22;8914;50.070;8.226;2024-01-27T05:07:45;4.30;99.90
17591;DHT22;8914;50.070;8.226;2024-01-27T05:10:17;4.30;99.90
17591;DHT22;8914;50.070;8.226;2024-01-27T05:12:48;4.30;99.90
17591;DHT22;8914;50.070;8.226;2024-01-27T05:15:18;4.30;99.90
17591;DHT22;8914;50.070;8.226;2024-01-27T05:17:47;4.30;99.90
17591;DHT22;8914;50.070;8.226;2024-01-27T05:20:17;4.30;99.90
17591;DHT22;8914;50.070;8.226;2024-01-27T05:22:47;4.20;99.90
17591;DHT22;8914;50.070;8.226;2024-01-27T05:25:19;4.30;99.90
17591;DHT22;8914;50.070;8.226;2024-01-27T05:27:49;4.20;99.90
17591;DHT22;8914;50.070;8.226;2024-01-27T05:30:18;4.10;99.90
17591;DHT22;8914;50.070;8.226;2024-01-27T05:32:48;4.00;99.90
17591;DHT22;8914;50.070;8.226;2024-01-27T05:35:18;4.00;99.90
17591;DHT22;8914;50.070;8.226;2024-01-27T05:37:47;4.00;99.90
17591;DHT22;8914;50.070;8.226;2024-01-27T05:40:20;3.90;99.90
17591;DHT22;8914;50.070;8.226;2024-01-27T05:42:50;3.90;99.90
17591;DHT22;8914;50.070;8.226;2024-01-27T05:45:19;3.90;99.90
17591;DHT22;8914;50.070;8.226;2024-01-27T05:47:49;3.90;99.90
17591;DHT22;8914;50.070;8.226;2024-01-27T05:50:20;3.90;99.90
17591;DHT22;8914;50.070;8.226;2024-01-27T05:52:49;3.90;99.90
17591;DHT22;8914;50.070;8.226;2024-01-27T05:55:22;3.80;99.90
17591;DHT22;8914;50.070;8.226;2024-01-27T05:57:51;3.80;99.90
17591;DHT22;8914;50.070;8.226;2024-01-27T06:00:22;4.90;99.90
17591;DHT22;8914;50.070;8.226;2024-01-27T06:02:51;3.80;99.90
17591;DHT22;8914;50.070;8.226;2024-01-27T06:05:21;3.80;99.90
17591;DHT22;8914;50.070;8.226;2024-01-27T06:07:51;3.70;99.90
17591;DHT22;8914;50.070;8.226;2024-01-27T06:10:23;3.70;99.90
17591;DHT22;8914;50.070;8.226;2024-01-27T06:12:53;3.70;99.90
17591;DHT22;8914;50.070;8.226;2024-01-27T06:15:22;3.70;99.90
17591;DHT22;8914;50.070;8.226;2024-01-27T06:17:52;3.60;99.90
17591;DHT22;8914;50.070;8.226;2024-01-27T06:20:22;3.60;99.90
17591;DHT22;8914;50.070;8.226;2024-01-27T06:22:52;3.60;99.90
17591;DHT22;8914;50.070;8.226;2024-01-27T06:25:24;3.60;99.90
17591;DHT22;8914;50.070;8.226;2024-01-27T06:27:54;3.50;99.90
17591;DHT22;8914;50.070;8.226;2024-01-27T06:30:24;3.50;99.90
17591;DHT22;8914;50.070;8.226;2024-01-27T06:32:54;3.60;99.90
17591;DHT22;8914;50.070;8.226;2024-01-27T06:35:24;3.60;99.90
17591;DHT22;8914;50.070;8.226;2024-01-27T06:37:53;3.60;99.90
17591;DHT22;8914;50.070;8.226;2024-01-27T06:40:25;3.60;99.90
17591;DHT22;8914;50.070;8.226;2024-01-27T06:42:55;3.60;99.90
17591;DHT22;8914;50.070;8.226;2024-01-27T06:45:27;3.50;99.90
17591;DHT22;8914;50.070;8.226;2024-01-27T06:47:57;3.60;99.90
17591;DHT22;8914;50.070;8.226;2024-01-27T06:50:27;3.40;99.90
17591;DHT22;8914;50.070;8.226;2024-01-27T06:52:57;3.30;99.90
17591;DHT22;8914;50.070;8.226;2024-01-27T06:55:29;3.20;99.90
17591;DHT22;8914;50.070;8.226;2024-01-27T06:57:59;3.20;99.90
17591;DHT22;8914;50.070;8.226;2024-01-27T07:00:29;3.20;99.90
17591;DHT22;8914;50.070;8.226;2024-01-27T07:02:58;3.20;99.90
17591;DHT22;8914;50.070;8.226;2024-01-27T07:05:29;3.10;99.90
17591;DHT22;8914;50.070;8.226;2024-01-27T07:08:06;3.20;99.90
17591;DHT22;8914;50.070;8.226;2024-01-27T07:10:38;3.00;99.90
17591;DHT22;8914;50.070;8.226;2024-01-27T07:13:08;2.90;99.90
17591;DHT22;8914;50.070;8.226;2024-01-27T07:15:38;2.90;99.90
17591;DHT22;8914;50.070;8.226;2024-01-27T07:18:08;3.00;99.90
17591;DHT22;8914;50.070;8.226;2024-01-27T07:20:38;3.00;99.90
17591;DHT22;8914;50.070;8.226;2024-01-27T07:23:08;3.00;99.90
17591;DHT22;8914;50.070;8.226;2024-01-27T07:25:40;3.00;99.90
17591;DHT22;8914;50.070;8.226;2024-01-27T07:28:09;3.00;99.90
17591;DHT22;8914;50.070;8.226;2024-01-27T07:30:39;3.00;99.90
17591;DHT22;8914;50.070;8.226;2024-01-27T07:33:09;3.00;99.90
17591;DHT22;8914;50.070;8.226;2024-01-27T07:35:38;3.00;99.90
17591;DHT22;8914;50.070;8.226;2024-01-27T07:38:08;2.90;99.90
17591;DHT22;8914;50.070;8.226;2024-01-27T07:40:41;2.90;99.90
17591;DHT22;8914;50.070;8.226;2024-01-27T07:43:10;2.80;99.90
17591;DHT22;8914;50.070;8.226;2024-01-27T07:45:40;2.80;99.90
17591;DHT22;8914;50.070;8.226;2024-01-27T07:48:11;2.80;99.90
17591;DHT22;8914;50.070;8.226;2024-01-27T07:50:41;2.80;99.90
17591;DHT22;8914;50.070;8.226;2024-01-27T07:53:15;3.10;99.90
17591;DHT22;8914;50.070;8.226;2024-01-27T07:55:47;3.00;99.90
17591;DHT22;8914;50.070;8.226;2024-01-27T07:58:18;3.00;99.90
17591;DHT22;8914;50.070;8.226;2024-01-27T08:00:47;3.00;99.90
17591;DHT22;8914;50.070;8.226;2024-01-27T08:03:17;3.10;99.90
17591;DHT22;8914;50.070;8.226;2024-01-27T08:05:47;3.00;99.90
17591;DHT22;8914;50.070;8.226;2024-01-27T08:08:17;3.20;99.90
17591;DHT22;8914;50.070;8.226;2024-01-27T08:10:49;3.30;99.90
17591;DHT22;8914;50.070;8.226;2024-01-27T08:13:19;3.30;99.90
17591;DHT22;8914;50.070;8.226;2024-01-27T08:15:48;3.30;99.90
17591;DHT22;8914;50.070;8.226;2024-01-27T08:18:18;3.30;99.90
17591;DHT22;8914;50.070;8.226;2024-01-27T08:20:48;3.40;99.90
17591;DHT22;8914;50.070;8.226;2024-01-27T08:23:17;3.40;99.90
17591;DHT22;8914;50.070;8.226;2024-01-27T08:25:50;3.40;99.90
17591;DHT22;8914;50.070;8.226;2024-01-27T08:28:19;3.50;99.90
17591;DHT22;8914;50.070;8.226;2024-01-27T08:30:49;3.50;99.90
17591;DHT22;8914;50.070;8.226;2024-01-27T08:33:19;3.50;99.90
17591;DHT22;8914;50.070;8.226;2024-01-27T08:35:49;3.50;99.90
17591;DHT22;8914;50.070;8.226;2024-01-27T08:38:18;3.50;99.90
17591;DHT22;8914;50.070;8.226;2024-01-27T08:40:51;3.50;99.90
17591;DHT22;8914;50.070;8.226;2024-01-27T08:43:20;3.40;99.90
17591;DHT22;8914;50.070;8.226;2024-01-27T08:45:50;3.50;99.90
17591;DHT22;8914;50.070;8.226;2024-01-27T08:48:21;3.50;99.90
17591;DHT22;8914;50.070;8.226;2024-01-27T08:50:51;3.50;99.90
17591;DHT22;8914;50.070;8.226;2024-01-27T08:53:21;3.60;99.90
17591;DHT22;8914;50.070;8.226;2024-01-27T08:58:35;3.60;99.90
17591;DHT22;8914;50.070;8.226;2024-01-27T09:01:05;3.80;99.90
17591;DHT22;8914;50.070;8.226;2024-01-27T09:03:36;3.80;99.90
17591;DHT22;8914;50.070;8.226;2024-01-27T09:06:06;3.80;99.90
17591;DHT22;8914;50.070;8.226;2024-01-27T09:08:37;3.80;99.90
17591;DHT22;8914;50.070;8.226;2024-01-27T09:11:08;3.80;99.90
17591;DHT22;8914;50.070;8.226;2024-01-27T09:13:41;4.00;99.90
17591;DHT22;8914;50.070;8.226;2024-01-27T09:16:12;4.00;99.90
17591;DHT22;8914;50.070;8.226;2024-01-27T09:18:42;4.00;99.90
17591;DHT22;8914;50.070;8.226;2024-01-27T09:21:12;4.00;99.90
17591;DHT22;8914;50.070;8.226;2024-01-27T09:23:47;4.00;99.90
17591;DHT22;8914;50.070;8.226;2024-01-27T09:26:17;4.10;99.90
17591;DHT22;8914;50.070;8.226;2024-01-27T09:28:49;4.10;99.90
17591;DHT22;8914;50.070;8.226;2024-01-27T09:31:21;4.20;99.90
17591;DHT22;8914;50.070;8.226;2024-01-27T09:33:53;4.50;99.90
17591;DHT22;8914;50.070;8.226;2024-01-27T09:36:23;4.30;99.90
17591;DHT22;8914;50.070;8.226;2024-01-27T09:38:53;4.40;99.90
17591;DHT22;8914;50.070;8.226;2024-01-27T09:41:23;4.60;99.90
17591;DHT22;8914;50.070;8.226;2024-01-27T09:43:55;4.50;99.90
17591;DHT22;8914;50.070;8.226;2024-01-27T09:46:29;4.60;99.90
17591;DHT22;8914;50.070;8.226;2024-01-27T09:48:59;4.60;99.90
17591;DHT22;8914;50.070;8.226;2024-01-27T09:51:29;4.70;99.90
17591;DHT22;8914;50.070;8.226;2024-01-27T09:53:59;4.70;99.90
17591;DHT22;8914;50.070;8.226;2024-01-27T09:56:29;4.90;99.90
17591;DHT22;8914;50.070;8.226;2024-01-27T09:59:01;4.90;99.90
17591;DHT22;8914;50.070;8.226;2024-01-27T10:01:31;4.80;99.90
17591;DHT22;8914;50.070;8.226;2024-01-27T10:04:03;4.80;99.90
17591;DHT22;8914;50.070;8.226;2024-01-27T10:06:33;4.90;99.90
17591;DHT22;8914;50.070;8.226;2024-01-27T10:11:45;4.90;99.90
17591;DHT22;8914;50.070;8.226;2024-01-27T10:14:18;4.90;99.90
17591;DHT22;8914;50.070;8.226;2024-01-27T10:16:48;5.00;99.90
17591;DHT22;8914;50.070;8.226;2024-01-27T10:19:18;5.10;99.90
17591;DHT22;8914;50.070;8.226;2024-01-27T10:21:48;5.30;99.90
17591;DHT22;8914;50.070;8.226;2024-01-27T10:24:29;5.30;99.90
17591;DHT22;8914;50.070;8.226;2024-01-27T10:27:01;5.50;99.90
17591;DHT22;8914;50.070;8.226;2024-01-27T10:29:33;5.60;99.90
17591;DHT22;8914;50.070;8.226;2024-01-27T10:32:09;5.70;99.90
17591;DHT22;8914;50.070;8.226;2024-01-27T10:34:39;5.90;99.90
17591;DHT22;8914;50.070;8.226;2024-01-27T10:37:11;6.00;99.90
17591;DHT22;8914;50.070;8.226;2024-01-27T10:39:41;6.00;99.90
17591;DHT22;8914;50.070;8.226;2024-01-27T10:42:11;6.10;99.90
17591;DHT22;8914;50.070;8.226;2024-01-27T10:44:44;6.20;99.90
17591;DHT22;8914;50.070;8.226;2024-01-27T10:47:15;6.40;99.90
17591;DHT22;8914;50.070;8.226;2024-01-27T10:49:46;6.60;99.90
17591;DHT22;8914;50.070;8.226;2024-01-27T10:52:17;6.70;99.90
17591;DHT22;8914;50.070;8.226;2024-01-27T10:54:48;6.90;99.90
17591;DHT22;8914;50.070;8.226;2024-01-27T10:57:20;7.00;99.90
17591;DHT22;8914;50.070;8.226;2024-01-27T10:59:53;7.20;99.90
17591;DHT22;8914;50.070;8.226;2024-01-27T11:02:23;7.30;99.90
17591;DHT22;8914;50.070;8.226;2024-01-27T11:04:54;7.40;99.90
17591;DHT22;8914;50.070;8.226;2024-01-27T11:07:24;7.50;99.90
17591;DHT22;8914;50.070;8.226;2024-01-27T11:09:55;7.50;99.90
17591;DHT22;8914;50.070;8.226;2024-01-27T11:12:25;7.60;99.90
17591;DHT22;8914;50.070;8.226;2024-01-27T11:14:58;7.70;99.90
17591;DHT22;8914;50.070;8.226;2024-01-27T11:17:37;7.80;99.90
17591;DHT22;8914;50.070;8.226;2024-01-27T11:20:08;8.00;99.90
17591;DHT22;8914;50.070;8.226;2024-01-27T11:22:38;8.10;99.90
17591;DHT22;8914;50.070;8.226;2024-01-27T11:25:14;8.10;99.90
17591;DHT22;8914;50.070;8.226;2024-01-27T11:27:45;8.20;99.90
17591;DHT22;8914;50.070;8.226;2024-01-27T11:30:30;8.20;99.90
17591;DHT22;8914;50.070;8.226;2024-01-27T11:33:04;8.20;99.90
17591;DHT22;8914;50.070;8.226;2024-01-27T11:35:35;8.20;99.90
17591;DHT22;8914;50.070;8.226;2024-01-27T11:38:05;9.50;99.90
17591;DHT22;8914;50.070;8.226;2024-01-27T11:40:44;8.30;99.90
17591;DHT22;8914;50.070;8.226;2024-01-27T11:43:14;8.30;99.90
17591;DHT22;8914;50.070;8.226;2024-01-27T11:45:54;8.30;99.90
17591;DHT22;8914;50.070;8.226;2024-01-27T11:48:24;8.10;99.90
17591;DHT22;8914;50.070;8.226;2024-01-27T11:51:03;8.00;99.90
17591;DHT22;8914;50.070;8.226;2024-01-27T11:53:33;8.00;99.90
17591;DHT22;8914;50.070;8.226;2024-01-27T11:56:03;8.10;99.90
17591;DHT22;8914;50.070;8.226;2024-01-27T11:58:34;8.00;99.90
17591;DHT22;8914;50.070;8.226;2024-01-27T12:01:06;8.00;99.90
17591;DHT22;8914;50.070;8.226;2024-01-27T12:03:36;8.10;99.90
17591;DHT22;8914;50.070;8.226;2024-01-27T12:06:10;8.00;99.90
17591;DHT22;8914;50.070;8.226;2024-01-27T12:08:42;8.10;99.90
17591;DHT22;8914;50.070;8.226;2024-01-27T12:11:16;8.00;99.90
17591;DHT22;8914;50.070;8.226;2024-01-27T12:13:51;8.50;99.90
17591;DHT22;8914;50.070;8.226;2024-01-27T12:16:24;8.00;99.90
17591;DHT22;8914;50.070;8.226;2024-01-27T12:18:54;9.00;99.90
17591;DHT22;8914;50.070;8.226;2024-01-27T12:21:24;8.00;99.90
17591;DHT22;8914;50.070;8.226;2024-01-27T12:23:55;8.00;99.90
17591;DHT22;8914;50.070;8.226;2024-01-27T12:26:28;8.10;99.90
17591;DHT22;8914;50.070;8.226;2024-01-27T12:28:59;8.00;99.90
17591;DHT22;8914;50.070;8.226;2024-01-27T12:31:32;8.00;99.90
17591;DHT22;8914;50.070;8.226;2024-01-27T12:34:01;8.00;99.90
17591;DHT22;8914;50.070;8.226;2024-01-27T12:36:32;8.00;99.90
17591;DHT22;8914;50.070;8.226;2024-01-27T12:39:02;8.00;99.90
17591;DHT22;8914;50.070;8.226;2024-01-27T12:41:32;8.00;99.90
17591;DHT22;8914;50.070;8.226;2024-01-27T12:44:02;8.10;99.90
17591;DHT22;8914;50.070;8.226;2024-01-27T12:46:34;8.00;99.90
17591;DHT22;8914;50.070;8.226;2024-01-27T12:49:04;8.10;99.90
17591;DHT22;8914;50.070;8.226;2024-01-27T12:51:34;8.50;99.90
17591;DHT22;8914;50.070;8.226;2024-01-27T12:54:09;9.20;99.90
17591;DHT22;8914;50.070;8.226;2024-01-27T12:56:38;8.10;99.90
17591;DHT22;8914;50.070;8.226;2024-01-27T12:59:16;8.10;99.90
17591;DHT22;8914;50.070;8.226;2024-01-27T13:01:53;8.10;99.90
17591;DHT22;8914;50.070;8.226;2024-01-27T13:04:23;8.20;99.90
17591;DHT22;8914;50.070;8.226;2024-01-27T13:06:56;8.20;99.90
17591;DHT22;8914;50.070;8.226;2024-01-27T13:09:26;8.20;99.90
17591;DHT22;8914;50.070;8.226;2024-01-27T13:11:56;8.20;99.90
17591;DHT22;8914;50.070;8.226;2024-01-27T13:14:26;8.20;99.90
17591;DHT22;8914;50.070;8.226;2024-01-27T13:16:58;8.20;99.90
17591;DHT22;8914;50.070;8.226;2024-01-27T13:19:28;8.20;99.90
17591;DHT22;8914;50.070;8.226;2024-01-27T13:21:58;8.20;99.90
17591;DHT22;8914;50.070;8.226;2024-01-27T13:24:29;8.20;99.90
17591;DHT22;8914;50.070;8.226;2024-01-27T13:26:59;8.20;99.90
17591;DHT22;8914;50.070;8.226;2024-01-27T13:29:29;8.20;99.90
17591;DHT22;8914;50.070;8.226;2024-01-27T13:32:02;8.20;99.90
17591;DHT22;8914;50.070;8.226;2024-01-27T13:34:31;8.20;99.90
17591;DHT22;8914;50.070;8.226;2024-01-27T13:37:02;8.20;99.90
17591;DHT22;8914;50.070;8.226;2024-01-27T13:39:32;8.30;99.90
17591;DHT22;8914;50.070;8.226;2024-01-27T13:42:03;8.30;99.90
17591;DHT22;8914;50.070;8.226;2024-01-27T13:44:33;8.30;99.90
17591;DHT22;8914;50.070;8.226;2024-01-27T13:47:07;8.40;99.90
17591;DHT22;8914;50.070;8.226;2024-01-27T13:49:37;8.40;99.90
17591;DHT22;8914;50.070;8.226;2024-01-27T13:52:07;8.40;99.90
17591;DHT22;8914;50.070;8.226;2024-01-27T13:54:37;8.40;99.90
17591;DHT22;8914;50.070;8.226;2024-01-27T13:57:07;8.40;99.90
17591;DHT22;8914;50.070;8.226;2024-01-27T13:59:40;8.40;99.90
17591;DHT22;8914;50.070;8.226;2024-01-27T14:02:12;8.40;99.90
17591;DHT22;8914;50.070;8.226;2024-01-27T14:04:43;8.40;99.90
17591;DHT22;8914;50.070;8.226;2024-01-27T14:07:13;8.50;99.90
17591;DHT22;8914;50.070;8.226;2024-01-27T14:09:43;8.50;99.90
17591;DHT22;8914;50.070;8.226;2024-01-27T14:12:14;8.50;99.90
17591;DHT22;8914;50.070;8.226;2024-01-27T14:14:45;8.50;99.90
17591;DHT22;8914;50.070;8.226;2024-01-27T14:17:18;8.50;99.90
17591;DHT22;8914;50.070;8.226;2024-01-27T14:19:48;8.50;99.90
17591;DHT22;8914;50.070;8.226;2024-01-27T14:22:18;8.50;99.90
17591;DHT22;8914;50.070;8.226;2024-01-27T14:24:48;8.50;99.90
17591;DHT22;8914;50.070;8.226;2024-01-27T14:27:18;8.50;99.90
17591;DHT22;8914;50.070;8.226;2024-01-27T14:29:52;8.60;99.90
17591;DHT22;8914;50.070;8.226;2024-01-27T14:32:25;8.50;99.90
17591;DHT22;8914;50.070;8.226;2024-01-27T14:34:55;8.60;99.90
17591;DHT22;8914;50.070;8.226;2024-01-27T14:37:25;8.60;99.90
17591;DHT22;8914;50.070;8.226;2024-01-27T14:39:55;8.60;99.90
17591;DHT22;8914;50.070;8.226;2024-01-27T14:42:25;8.60;99.90
17591;DHT22;8914;50.070;8.226;2024-01-27T14:44:58;8.60;99.90
17591;DHT22;8914;50.070;8.226;2024-01-27T14:47:31;8.60;99.90
17591;DHT22;8914;50.070;8.226;2024-01-27T14:50:02;8.60;99.90
17591;DHT22;8914;50.070;8.226;2024-01-27T14:52:33;8.60;99.90
17591;DHT22;8914;50.070;8.226;2024-01-27T14:55:03;7.90;99.90
17591;DHT22;8914;50.070;8.226;2024-01-27T14:57:35;8.50;99.90
17591;DHT22;8914;50.070;8.226;2024-01-27T15:00:05;8.70;99.90
17591;DHT22;8914;50.070;8.226;2024-01-27T15:02:39;8.50;99.90
17591;DHT22;8914;50.070;8.226;2024-01-27T15:05:11;8.60;99.90
17591;DHT22;8914;50.070;8.226;2024-01-27T15:07:41;8.50;99.90
17591;DHT22;8914;50.070;8.226;2024-01-27T15:10:12;8.50;99.90
17591;DHT22;8914;50.070;8.226;2024-01-27T15:12:41;8.50;99.90
17591;DHT22;8914;50.070;8.226;2024-01-27T15:15:12;8.50;99.90
17591;DHT22;8914;50.070;8.226;2024-01-27T15:17:44;8.50;99.90
17591;DHT22;8914;50.070;8.226;2024-01-27T15:20:14;8.50;99.90
17591;DHT22;8914;50.070;8.226;2024-01-27T15:22:44;8.40;99.90
17591;DHT22;8914;50.070;8.226;2024-01-27T15:25:14;8.40;99.90
17591;DHT22;8914;50.070;8.226;2024-01-27T15:27:44;8.40;99.90
17591;DHT22;8914;50.070;8.226;2024-01-27T15:30:14;8.40;99.90
17591;DHT22;8914;50.070;8.226;2024-01-27T15:32:47;8.40;99.90
17591;DHT22;8914;50.070;8.226;2024-01-27T15:35:17;8.40;99.90
17591;DHT22;8914;50.070;8.226;2024-01-27T15:37:47;8.40;99.90
17591;DHT22;8914;50.070;8.226;2024-01-27T15:40:17;8.40;99.90
17591;DHT22;8914;50.070;8.226;2024-01-27T15:42:48;8.40;99.90
17591;DHT22;8914;50.070;8.226;2024-01-27T15:45:18;7.70;99.90
17591;DHT22;8914;50.070;8.226;2024-01-27T15:47:51;8.40;99.90
17591;DHT22;8914;50.070;8.226;2024-01-27T15:50:24;8.30;99.90
17591;DHT22;8914;50.070;8.226;2024-01-27T15:52:55;8.30;99.90
17591;DHT22;8914;50.070;8.226;2024-01-27T15:55:27;8.30;99.90
17591;DHT22;8914;50.070;8.226;2024-01-27T15:58:00;8.20;99.90
17591;DHT22;8914;50.070;8.226;2024-01-27T16:00:30;8.10;99.90
17591;DHT22;8914;50.070;8.226;2024-01-27T16:03:02;9.20;99.90
17591;DHT22;8914;50.070;8.226;2024-01-27T16:05:32;8.00;99.90
17591;DHT22;8914;50.070;8.226;2024-01-27T16:08:03;7.90;99.90
17591;DHT22;8914;50.070;8.226;2024-01-27T16:10:33;7.90;99.90
17591;DHT22;8914;50.070;8.226;2024-01-27T16:13:04;7.80;99.90
17591;DHT22;8914;50.070;8.226;2024-01-27T16:15:34;7.70;99.90
17591;DHT22;8914;50.070;8.226;2024-01-27T16:18:06;7.60;99.90
17591;DHT22;8914;50.070;8.226;2024-01-27T16:20:37;7.50;99.90
17591;DHT22;8914;50.070;8.226;2024-01-27T16:23:06;7.50;99.90
17591;DHT22;8914;50.070;8.226;2024-01-27T16:25:36;7.50;99.90
17591;DHT22;8914;50.070;8.226;2024-01-27T16:28:06;7.40;99.90
17591;DHT22;8914;50.070;8.226;2024-01-27T16:30:36;7.30;99.90